sensor_id;sensor_type;location;lat;lon;timestamp;pressure;altitude;pressure_sealevel;temperature;humidity
13705;BME280;6924;52.122;9.952;2023-09-07T00:00:59;101158.38;;;17.26;91.64
13705;BME280;6924;52.122;9.952;2023-09-07T00:03:27;101157.41;;;17.22;91.55
13705;BME280;6924;52.122;9.952;2023-09-07T00:05:54;101161.44;;;17.21;91.09
13705;BME280;6924;52.122;9.952;2023-09-07T00:08:20;101158.13;;;17.10;91.33
13705;BME280;6924;52.122;9.952;2023-09-07T00:10:46;101166.06;;;17.05;92.26
13705;BME280;6924;52.122;9.952;2023-09-07T00:13:13;101162.38;;;17.04;92.27
13705;BME280;6924;52.122;9.952;2023-09-07T00:15:39;101161.97;;;16.85;92.57
13705;BME280;6924;52.122;9.952;2023-09-07T00:18:06;101171.22;;;16.73;92.57
13705;BME280;6924;52.122;9.952;2023-09-07T00:20:34;101167.84;;;16.71;92.87
13705;BME280;6924;52.122;9.952;2023-09-07T00:23:00;101163.91;;;16.55;93.00
13705;BME280;6924;52.122;9.952;2023-09-07T00:25:27;101166.06;;;16.58;92.84
13705;BME280;6924;52.122;9.952;2023-09-07T00:27:54;101169.97;;;16.44;93.13
13705;BME280;6924;52.122;9.952;2023-09-07T00:30:20;101170.63;;;16.50;94.12
13705;BME280;6924;52.122;9.952;2023-09-07T00:32:47;101169.63;;;16.55;93.25
13705;BME280;6924;52.122;9.952;2023-09-07T00:35:13;101162.72;;;16.56;92.66
13705;BME280;6924;52.122;9.952;2023-09-07T00:37:41;101165.56;;;16.56;92.83
13705;BME280;6924;52.122;9.952;2023-09-07T00:40:08;101170.47;;;16.46;93.28
13705;BME280;6924;52.122;9.952;2023-09-07T00:42:35;101166.59;;;16.51;93.27
13705;BME280;6924;52.122;9.952;2023-09-07T00:45:02;101166.09;;;16.49;93.16
13705;BME280;6924;52.122;9.952;2023-09-07T00:47:28;101169.31;;;16.47;93.25
13705;BME280;6924;52.122;9.952;2023-09-07T00:49:55;101163.09;;;16.45;93.26
13705;BME280;6924;52.122;9.952;2023-09-07T00:52:23;101161.91;;;16.46;93.92
13705;BME280;6924;52.122;9.952;2023-09-07T00:54:51;101164.28;;;16.27;93.79
13705;BME280;6924;52.122;9.952;2023-09-07T00:57:17;101162.66;;;16.08;93.50
13705;BME280;6924;52.122;9.952;2023-09-07T00:59:43;101163.00;;;15.89;94.08
13705;BME280;6924;52.122;9.952;2023-09-07T01:02:10;101168.06;;;15.84;94.78
13705;BME280;6924;52.122;9.952;2023-09-07T01:04:36;101163.38;;;15.88;94.51
13705;BME280;6924;52.122;9.952;2023-09-07T01:07:08;101166.72;;;15.99;94.42
13705;BME280;6924;52.122;9.952;2023-09-07T01:09:36;101166.03;;;16.02;94.55
13705;BME280;6924;52.122;9.952;2023-09-07T01:12:13;101166.53;;;16.04;93.79
13705;BME280;6924;52.122;9.952;2023-09-07T01:14:40;101164.00;;;16.02;93.88
13705;BME280;6924;52.122;9.952;2023-09-07T01:17:07;101162.16;;;15.98;93.74
13705;BME280;6924;52.122;9.952;2023-09-07T01:19:34;101154.94;;;16.00;93.53
13705;BME280;6924;52.122;9.952;2023-09-07T01:22:02;101156.66;;;15.93;93.40
13705;BME280;6924;52.122;9.952;2023-09-07T01:24:30;101156.66;;;15.93;93.67
13705;BME280;6924;52.122;9.952;2023-09-07T01:26:57;101157.31;;;15.89;93.57
13705;BME280;6924;52.122;9.952;2023-09-07T01:29:24;101156.81;;;15.87;93.59
13705;BME280;6924;52.122;9.952;2023-09-07T01:31:52;101158.00;;;15.86;93.83
13705;BME280;6924;52.122;9.952;2023-09-07T01:34:19;101155.97;;;15.78;94.49
13705;BME280;6924;52.122;9.952;2023-09-07T01:36:45;101150.59;;;15.59;95.33
13705;BME280;6924;52.122;9.952;2023-09-07T01:39:13;101159.13;;;15.50;96.48
13705;BME280;6924;52.122;9.952;2023-09-07T01:41:39;101162.63;;;15.47;97.41
13705;BME280;6924;52.122;9.952;2023-09-07T01:44:06;101150.72;;;15.54;97.33
13705;BME280;6924;52.122;9.952;2023-09-07T01:46:32;101158.31;;;15.59;96.87
13705;BME280;6924;52.122;9.952;2023-09-07T01:49:01;101154.78;;;15.62;96.58
13705;BME280;6924;52.122;9.952;2023-09-07T01:51:27;101157.44;;;15.58;96.74
13705;BME280;6924;52.122;9.952;2023-09-07T01:53:54;101168.84;;;15.49;97.30
13705;BME280;6924;52.122;9.952;2023-09-07T01:56:22;101165.50;;;15.56;97.36
13705;BME280;6924;52.122;9.952;2023-09-07T01:58:49;101167.69;;;15.59;96.84
13705;BME280;6924;52.122;9.952;2023-09-07T02:01:22;101165.66;;;15.60;96.57
13705;BME280;6924;52.122;9.952;2023-09-07T02:03:48;101177.41;;;15.58;96.48
13705;BME280;6924;52.122;9.952;2023-09-07T02:06:15;101169.53;;;15.55;96.42
13705;BME280;6924;52.122;9.952;2023-09-07T02:08:41;101168.03;;;15.58;96.17
13705;BME280;6924;52.122;9.952;2023-09-07T02:11:08;101169.22;;;15.57;96.42
13705;BME280;6924;52.122;9.952;2023-09-07T02:13:36;101172.56;;;15.50;97.12
13705;BME280;6924;52.122;9.952;2023-09-07T02:16:03;101158.31;;;15.50;97.78
13705;BME280;6924;52.122;9.952;2023-09-07T02:18:31;101162.81;;;15.51;98.83
13705;BME280;6924;52.122;9.952;2023-09-07T02:21:01;101172.56;;;15.50;98.27
13705;BME280;6924;52.122;9.952;2023-09-07T02:23:27;101160.13;;;15.46;97.71
13705;BME280;6924;52.122;9.952;2023-09-07T02:25:54;101165.00;;;15.37;97.76
13705;BME280;6924;52.122;9.952;2023-09-07T02:28:20;101162.63;;;15.30;97.62
13705;BME280;6924;52.122;9.952;2023-09-07T02:30:48;101164.59;;;15.12;99.28
13705;BME280;6924;52.122;9.952;2023-09-07T02:33:14;101164.09;;;15.19;99.24
13705;BME280;6924;52.122;9.952;2023-09-07T02:35:41;101163.44;;;15.13;99.78
13705;BME280;6924;52.122;9.952;2023-09-07T02:38:07;101173.31;;;15.16;99.72
13705;BME280;6924;52.122;9.952;2023-09-07T02:40:39;101167.81;;;15.19;99.31
13705;BME280;6924;52.122;9.952;2023-09-07T02:43:07;101165.75;;;15.11;99.38
13705;BME280;6924;52.122;9.952;2023-09-07T02:45:33;101171.66;;;15.15;99.20
13705;BME280;6924;52.122;9.952;2023-09-07T02:48:02;101175.34;;;15.15;98.39
13705;BME280;6924;52.122;9.952;2023-09-07T02:50:30;101169.78;;;15.19;98.29
13705;BME280;6924;52.122;9.952;2023-09-07T02:52:56;101170.66;;;15.19;97.97
13705;BME280;6924;52.122;9.952;2023-09-07T02:55:23;101172.13;;;15.17;98.31
13705;BME280;6924;52.122;9.952;2023-09-07T02:57:49;101167.63;;;15.16;98.25
13705;BME280;6924;52.122;9.952;2023-09-07T03:00:16;101180.69;;;15.17;98.20
13705;BME280;6924;52.122;9.952;2023-09-07T03:02:43;101171.44;;;15.02;98.58
13705;BME280;6924;52.122;9.952;2023-09-07T03:05:11;101164.19;;;14.87;99.10
13705;BME280;6924;52.122;9.952;2023-09-07T03:07:37;101169.53;;;14.80;100.00
13705;BME280;6924;52.122;9.952;2023-09-07T03:10:05;101161.84;;;14.90;100.00
13705;BME280;6924;52.122;9.952;2023-09-07T03:12:31;101169.38;;;14.94;100.00
13705;BME280;6924;52.122;9.952;2023-09-07T03:14:58;101164.19;;;14.87;100.00
13705;BME280;6924;52.122;9.952;2023-09-07T03:17:28;101160.81;;;14.85;100.00
13705;BME280;6924;52.122;9.952;2023-09-07T03:19:56;101162.63;;;14.81;100.00
13705;BME280;6924;52.122;9.952;2023-09-07T03:22:24;101159.66;;;14.86;100.00
13705;BME280;6924;52.122;9.952;2023-09-07T03:24:51;101166.50;;;14.85;100.00
13705;BME280;6924;52.122;9.952;2023-09-07T03:27:18;101160.66;;;14.82;99.22
13705;BME280;6924;52.122;9.952;2023-09-07T03:29:45;101167.97;;;14.74;98.45
13705;BME280;6924;52.122;9.952;2023-09-07T03:32:12;101161.56;;;14.60;98.36
13705;BME280;6924;52.122;9.952;2023-09-07T03:34:38;101172.53;;;14.53;98.18
13705;BME280;6924;52.122;9.952;2023-09-07T03:37:05;101170.34;;;14.50;97.60
13705;BME280;6924;52.122;9.952;2023-09-07T03:39:33;101170.75;;;14.57;97.16
13705;BME280;6924;52.122;9.952;2023-09-07T03:41:59;101170.44;;;14.58;96.14
13705;BME280;6924;52.122;9.952;2023-09-07T03:44:26;101167.97;;;14.43;96.98
13705;BME280;6924;52.122;9.952;2023-09-07T03:46:52;101172.63;;;14.39;96.79
13705;BME280;6924;52.122;9.952;2023-09-07T03:49:19;101171.78;;;14.38;97.61
13705;BME280;6924;52.122;9.952;2023-09-07T03:51:45;101166.94;;;14.39;97.45
13705;BME280;6924;52.122;9.952;2023-09-07T03:54:12;101160.94;;;14.40;97.32
13705;BME280;6924;52.122;9.952;2023-09-07T03:56:39;101167.47;;;14.41;97.40
13705;BME280;6924;52.122;9.952;2023-09-07T03:59:06;101166.31;;;14.42;97.13
13705;BME280;6924;52.122;9.952;2023-09-07T04:01:32;101172.91;;;14.29;97.38
13705;BME280;6924;52.122;9.952;2023-09-07T04:03:59;101168.22;;;14.33;97.44
13705;BME280;6924;52.122;9.952;2023-09-07T04:06:25;101175.25;;;14.26;97.64
13705;BME280;6924;52.122;9.952;2023-09-07T04:08:52;101171.75;;;14.30;97.95
13705;BME280;6924;52.122;9.952;2023-09-07T04:11:18;101169.22;;;14.28;97.61
13705;BME280;6924;52.122;9.952;2023-09-07T04:13:46;101165.75;;;14.31;96.50
13705;BME280;6924;52.122;9.952;2023-09-07T04:16:12;101169.22;;;14.28;96.34
13705;BME280;6924;52.122;9.952;2023-09-07T04:18:39;101172.00;;;14.19;96.93
13705;BME280;6924;52.122;9.952;2023-09-07T04:21:06;101173.69;;;14.20;96.54
13705;BME280;6924;52.122;9.952;2023-09-07T04:23:32;101171.63;;;14.12;97.00
13705;BME280;6924;52.122;9.952;2023-09-07T04:26:05;101177.13;;;14.09;97.71
13705;BME280;6924;52.122;9.952;2023-09-07T04:28:32;101178.50;;;14.11;97.88
13705;BME280;6924;52.122;9.952;2023-09-07T04:30:59;101176.16;;;14.13;98.17
13705;BME280;6924;52.122;9.952;2023-09-07T04:33:26;101181.97;;;14.08;98.61
13705;BME280;6924;52.122;9.952;2023-09-07T04:35:52;101188.38;;;14.14;99.90
13705;BME280;6924;52.122;9.952;2023-09-07T04:38:19;101181.06;;;13.99;100.00
13705;BME280;6924;52.122;9.952;2023-09-07T04:40:45;101190.06;;;13.92;100.00
13705;BME280;6924;52.122;9.952;2023-09-07T04:43:12;101189.59;;;13.99;100.00
13705;BME280;6924;52.122;9.952;2023-09-07T04:45:45;101188.78;;;13.98;100.00
13705;BME280;6924;52.122;9.952;2023-09-07T04:48:13;101188.25;;;13.96;100.00
13705;BME280;6924;52.122;9.952;2023-09-07T04:50:40;101186.63;;;14.04;100.00
13705;BME280;6924;52.122;9.952;2023-09-07T04:53:06;101180.25;;;13.98;100.00
13705;BME280;6924;52.122;9.952;2023-09-07T04:55:37;101179.19;;;13.94;100.00
13705;BME280;6924;52.122;9.952;2023-09-07T04:58:04;101196.25;;;13.94;100.00
13705;BME280;6924;52.122;9.952;2023-09-07T05:00:30;101195.50;;;14.02;100.00
13705;BME280;6924;52.122;9.952;2023-09-07T05:02:57;101192.00;;;14.05;100.00
13705;BME280;6924;52.122;9.952;2023-09-07T05:05:24;101199.34;;;14.06;100.00
13705;BME280;6924;52.122;9.952;2023-09-07T05:07:51;101202.41;;;14.10;100.00
13705;BME280;6924;52.122;9.952;2023-09-07T05:10:19;101200.38;;;14.11;100.00
13705;BME280;6924;52.122;9.952;2023-09-07T05:12:45;101206.59;;;14.13;100.00
13705;BME280;6924;52.122;9.952;2023-09-07T05:15:12;101199.75;;;14.14;100.00
13705;BME280;6924;52.122;9.952;2023-09-07T05:17:41;101203.06;;;14.07;100.00
13705;BME280;6924;52.122;9.952;2023-09-07T05:20:08;101200.06;;;14.12;100.00
13705;BME280;6924;52.122;9.952;2023-09-07T05:22:36;101203.44;;;14.14;100.00
13705;BME280;6924;52.122;9.952;2023-09-07T05:25:05;101201.94;;;14.17;100.00
13705;BME280;6924;52.122;9.952;2023-09-07T05:27:34;101207.00;;;14.20;100.00
13705;BME280;6924;52.122;9.952;2023-09-07T05:30:00;101210.03;;;14.23;100.00
13705;BME280;6924;52.122;9.952;2023-09-07T05:32:27;101212.56;;;14.25;100.00
13705;BME280;6924;52.122;9.952;2023-09-07T05:34:53;101211.59;;;14.30;100.00
13705;BME280;6924;52.122;9.952;2023-09-07T05:37:19;101202.72;;;14.31;100.00
13705;BME280;6924;52.122;9.952;2023-09-07T05:39:47;101212.31;;;14.35;100.00
13705;BME280;6924;52.122;9.952;2023-09-07T05:42:14;101210.16;;;14.41;100.00
13705;BME280;6924;52.122;9.952;2023-09-07T05:44:41;101210.00;;;14.46;100.00
13705;BME280;6924;52.122;9.952;2023-09-07T05:47:07;101211.03;;;14.50;100.00
13705;BME280;6924;52.122;9.952;2023-09-07T05:49:34;101208.94;;;14.56;100.00
13705;BME280;6924;52.122;9.952;2023-09-07T05:52:00;101212.81;;;14.60;100.00
13705;BME280;6924;52.122;9.952;2023-09-07T05:54:27;101202.78;;;14.62;100.00
13705;BME280;6924;52.122;9.952;2023-09-07T05:56:54;101214.53;;;14.70;100.00
13705;BME280;6924;52.122;9.952;2023-09-07T05:59:21;101209.53;;;14.75;100.00
13705;BME280;6924;52.122;9.952;2023-09-07T06:01:47;101193.13;;;14.81;100.00
13705;BME280;6924;52.122;9.952;2023-09-07T06:04:14;101200.38;;;14.87;100.00
13705;BME280;6924;52.122;9.952;2023-09-07T06:06:40;101194.66;;;14.87;100.00
13705;BME280;6924;52.122;9.952;2023-09-07T06:09:07;101200.72;;;14.94;100.00
13705;BME280;6924;52.122;9.952;2023-09-07T06:11:33;101199.22;;;14.97;100.00
13705;BME280;6924;52.122;9.952;2023-09-07T06:14:01;101204.91;;;14.97;100.00
13705;BME280;6924;52.122;9.952;2023-09-07T06:16:28;101210.13;;;15.03;100.00
13705;BME280;6924;52.122;9.952;2023-09-07T06:18:54;101215.88;;;15.12;100.00
13705;BME280;6924;52.122;9.952;2023-09-07T06:21:20;101207.69;;;15.19;100.00
13705;BME280;6924;52.122;9.952;2023-09-07T06:23:47;101210.91;;;15.26;100.00
13705;BME280;6924;52.122;9.952;2023-09-07T06:26:15;101207.06;;;15.31;100.00
13705;BME280;6924;52.122;9.952;2023-09-07T06:28:43;101212.97;;;15.43;100.00
13705;BME280;6924;52.122;9.952;2023-09-07T06:31:10;101214.13;;;15.51;100.00
13705;BME280;6924;52.122;9.952;2023-09-07T06:33:37;101215.81;;;15.61;100.00
13705;BME280;6924;52.122;9.952;2023-09-07T06:36:03;101219.53;;;15.70;100.00
13705;BME280;6924;52.122;9.952;2023-09-07T06:38:30;101221.06;;;15.76;100.00
13705;BME280;6924;52.122;9.952;2023-09-07T06:40:57;101224.59;;;15.73;100.00
13705;BME280;6924;52.122;9.952;2023-09-07T06:43:23;101221.94;;;15.77;100.00
13705;BME280;6924;52.122;9.952;2023-09-07T06:45:49;101215.72;;;15.92;100.00
13705;BME280;6924;52.122;9.952;2023-09-07T06:48:17;101222.78;;;16.03;100.00
13705;BME280;6924;52.122;9.952;2023-09-07T06:50:44;101219.56;;;16.14;100.00
13705;BME280;6924;52.122;9.952;2023-09-07T06:53:10;101216.19;;;16.20;100.00
13705;BME280;6924;52.122;9.952;2023-09-07T06:55:36;101215.03;;;16.30;100.00
13705;BME280;6924;52.122;9.952;2023-09-07T06:58:03;101211.16;;;16.35;100.00
13705;BME280;6924;52.122;9.952;2023-09-07T07:00:29;101217.69;;;16.44;100.00
13705;BME280;6924;52.122;9.952;2023-09-07T07:02:56;101205.94;;;16.45;100.00
13705;BME280;6924;52.122;9.952;2023-09-07T07:05:25;101214.59;;;16.58;100.00
13705;BME280;6924;52.122;9.952;2023-09-07T07:07:53;101211.56;;;16.71;100.00
13705;BME280;6924;52.122;9.952;2023-09-07T07:10:20;101213.72;;;16.83;100.00
13705;BME280;6924;52.122;9.952;2023-09-07T07:12:46;101213.53;;;16.88;100.00
13705;BME280;6924;52.122;9.952;2023-09-07T07:15:13;101214.00;;;16.99;100.00
13705;BME280;6924;52.122;9.952;2023-09-07T07:17:39;101219.00;;;17.11;100.00
13705;BME280;6924;52.122;9.952;2023-09-07T07:20:07;101219.31;;;17.18;100.00
13705;BME280;6924;52.122;9.952;2023-09-07T07:22:35;101218.88;;;17.28;100.00
13705;BME280;6924;52.122;9.952;2023-09-07T07:25:01;101211.31;;;17.32;100.00
13705;BME280;6924;52.122;9.952;2023-09-07T07:27:30;101219.28;;;17.48;100.00
13705;BME280;6924;52.122;9.952;2023-09-07T07:29:57;101219.38;;;17.60;100.00
13705;BME280;6924;52.122;9.952;2023-09-07T07:32:24;101218.69;;;17.63;100.00
13705;BME280;6924;52.122;9.952;2023-09-07T07:34:50;101220.44;;;17.76;100.00
13705;BME280;6924;52.122;9.952;2023-09-07T07:37:17;101219.34;;;17.90;100.00
13705;BME280;6924;52.122;9.952;2023-09-07T07:39:44;101217.88;;;18.05;100.00
13705;BME280;6924;52.122;9.952;2023-09-07T07:42:11;101214.47;;;18.11;100.00
13705;BME280;6924;52.122;9.952;2023-09-07T07:44:37;101221.22;;;18.28;100.00
13705;BME280;6924;52.122;9.952;2023-09-07T07:47:04;101217.66;;;18.31;100.00
13705;BME280;6924;52.122;9.952;2023-09-07T07:49:30;101209.94;;;18.44;100.00
13705;BME280;6924;52.122;9.952;2023-09-07T07:51:58;101213.78;;;18.48;99.76
13705;BME280;6924;52.122;9.952;2023-09-07T07:54:24;101222.50;;;18.51;99.85
13705;BME280;6924;52.122;9.952;2023-09-07T07:56:52;101222.31;;;18.69;99.10
13705;BME280;6924;52.122;9.952;2023-09-07T07:59:18;101217.13;;;18.83;99.90
13705;BME280;6924;52.122;9.952;2023-09-07T08:01:45;101226.22;;;18.97;96.98
13705;BME280;6924;52.122;9.952;2023-09-07T08:04:11;101224.81;;;19.16;95.58
13705;BME280;6924;52.122;9.952;2023-09-07T08:06:38;101221.44;;;19.26;95.03
13705;BME280;6924;52.122;9.952;2023-09-07T08:09:04;101217.50;;;19.43;93.29
13705;BME280;6924;52.122;9.952;2023-09-07T08:11:31;101214.25;;;19.57;92.58
13705;BME280;6924;52.122;9.952;2023-09-07T08:13:59;101212.56;;;19.68;93.92
13705;BME280;6924;52.122;9.952;2023-09-07T08:16:27;101212.22;;;19.82;91.71
13705;BME280;6924;52.122;9.952;2023-09-07T08:18:53;101219.03;;;19.90;92.57
13705;BME280;6924;52.122;9.952;2023-09-07T08:21:20;101213.47;;;20.09;93.65
13705;BME280;6924;52.122;9.952;2023-09-07T08:23:46;101203.69;;;20.26;91.57
13705;BME280;6924;52.122;9.952;2023-09-07T08:26:13;101203.53;;;20.35;89.07
13705;BME280;6924;52.122;9.952;2023-09-07T08:28:40;101196.44;;;20.44;90.27
13705;BME280;6924;52.122;9.952;2023-09-07T08:31:08;101194.06;;;20.62;86.81
13705;BME280;6924;52.122;9.952;2023-09-07T08:33:35;101191.31;;;20.82;86.28
13705;BME280;6924;52.122;9.952;2023-09-07T08:36:05;101199.47;;;20.96;86.53
13705;BME280;6924;52.122;9.952;2023-09-07T08:38:34;101193.81;;;21.15;85.36
13705;BME280;6924;52.122;9.952;2023-09-07T08:41:02;101193.34;;;21.29;83.37
13705;BME280;6924;52.122;9.952;2023-09-07T08:43:32;101193.97;;;21.38;82.79
13705;BME280;6924;52.122;9.952;2023-09-07T08:46:04;101198.00;;;21.50;82.42
13705;BME280;6924;52.122;9.952;2023-09-07T08:48:33;101198.78;;;21.66;83.22
13705;BME280;6924;52.122;9.952;2023-09-07T08:51:02;101199.50;;;21.79;82.51
13705;BME280;6924;52.122;9.952;2023-09-07T08:53:30;101201.69;;;21.85;81.23
13705;BME280;6924;52.122;9.952;2023-09-07T08:55:58;101203.69;;;22.01;81.05
13705;BME280;6924;52.122;9.952;2023-09-07T08:58:26;101209.69;;;22.12;79.27
13705;BME280;6924;52.122;9.952;2023-09-07T09:00:53;101203.63;;;22.17;77.61
13705;BME280;6924;52.122;9.952;2023-09-07T09:03:23;101200.53;;;22.25;77.95
13705;BME280;6924;52.122;9.952;2023-09-07T09:05:52;101204.84;;;22.35;77.62
13705;BME280;6924;52.122;9.952;2023-09-07T09:08:19;101210.47;;;22.28;77.34
13705;BME280;6924;52.122;9.952;2023-09-07T09:10:57;101201.28;;;22.42;78.49
13705;BME280;6924;52.122;9.952;2023-09-07T09:13:27;101203.22;;;22.57;76.81
13705;BME280;6924;52.122;9.952;2023-09-07T09:15:53;101196.91;;;22.71;77.55
13705;BME280;6924;52.122;9.952;2023-09-07T09:18:20;101199.47;;;22.76;76.63
13705;BME280;6924;52.122;9.952;2023-09-07T09:20:46;101193.09;;;22.86;75.21
13705;BME280;6924;52.122;9.952;2023-09-07T09:23:14;101192.19;;;23.05;75.37
13705;BME280;6924;52.122;9.952;2023-09-07T09:25:41;101195.38;;;23.23;75.95
13705;BME280;6924;52.122;9.952;2023-09-07T09:28:08;101196.72;;;23.29;75.07
13705;BME280;6924;52.122;9.952;2023-09-07T09:30:35;101181.66;;;23.40;72.93
13705;BME280;6924;52.122;9.952;2023-09-07T09:33:02;101187.19;;;23.52;71.94
13705;BME280;6924;52.122;9.952;2023-09-07T09:35:30;101176.34;;;23.72;72.09
13705;BME280;6924;52.122;9.952;2023-09-07T09:38:00;101179.84;;;23.85;72.64
13705;BME280;6924;52.122;9.952;2023-09-07T09:40:30;101173.13;;;24.04;72.29
13705;BME280;6924;52.122;9.952;2023-09-07T09:42:57;101174.66;;;24.28;72.24
13705;BME280;6924;52.122;9.952;2023-09-07T09:45:26;101167.00;;;24.46;69.07
13705;BME280;6924;52.122;9.952;2023-09-07T09:47:54;101167.22;;;24.61;69.53
13705;BME280;6924;52.122;9.952;2023-09-07T09:50:22;101166.19;;;24.83;69.68
13705;BME280;6924;52.122;9.952;2023-09-07T09:52:48;101167.56;;;24.97;67.67
13705;BME280;6924;52.122;9.952;2023-09-07T09:55:15;101160.63;;;25.08;66.11
13705;BME280;6924;52.122;9.952;2023-09-07T09:57:43;101161.06;;;25.10;65.51
13705;BME280;6924;52.122;9.952;2023-09-07T10:00:10;101165.44;;;25.38;65.07
13705;BME280;6924;52.122;9.952;2023-09-07T10:02:55;101159.78;;;25.56;64.44
13705;BME280;6924;52.122;9.952;2023-09-07T10:05:25;101153.25;;;25.73;64.06
13705;BME280;6924;52.122;9.952;2023-09-07T10:07:52;101148.44;;;25.95;62.87
13705;BME280;6924;52.122;9.952;2023-09-07T10:10:19;101151.00;;;26.15;62.21
13705;BME280;6924;52.122;9.952;2023-09-07T10:12:52;101147.72;;;26.20;60.77
13705;BME280;6924;52.122;9.952;2023-09-07T10:15:20;101140.72;;;26.35;62.03
13705;BME280;6924;52.122;9.952;2023-09-07T10:17:47;101144.88;;;26.49;63.03
13705;BME280;6924;52.122;9.952;2023-09-07T10:20:15;101144.50;;;26.61;61.18
13705;BME280;6924;52.122;9.952;2023-09-07T10:22:42;101147.47;;;26.86;60.59
13705;BME280;6924;52.122;9.952;2023-09-07T10:25:19;101145.81;;;26.96;59.33
13705;BME280;6924;52.122;9.952;2023-09-07T10:27:45;101147.47;;;27.04;60.74
13705;BME280;6924;52.122;9.952;2023-09-07T10:30:13;101142.50;;;27.05;59.14
13705;BME280;6924;52.122;9.952;2023-09-07T10:32:44;101133.78;;;27.19;59.59
13705;BME280;6924;52.122;9.952;2023-09-07T10:35:14;101142.53;;;27.30;58.21
13705;BME280;6924;52.122;9.952;2023-09-07T10:37:44;101137.91;;;27.47;59.08
13705;BME280;6924;52.122;9.952;2023-09-07T10:40:12;101139.16;;;27.56;57.67
13705;BME280;6924;52.122;9.952;2023-09-07T10:42:41;101133.28;;;27.71;57.39
13705;BME280;6924;52.122;9.952;2023-09-07T10:45:09;101131.63;;;27.88;57.64
13705;BME280;6924;52.122;9.952;2023-09-07T10:47:40;101127.41;;;27.99;56.75
13705;BME280;6924;52.122;9.952;2023-09-07T10:50:07;101128.59;;;28.13;56.73
13705;BME280;6924;52.122;9.952;2023-09-07T10:52:33;101126.94;;;28.12;54.90
13705;BME280;6924;52.122;9.952;2023-09-07T10:55:00;101120.63;;;28.24;55.28
13705;BME280;6924;52.122;9.952;2023-09-07T10:57:27;101118.59;;;28.25;55.86
13705;BME280;6924;52.122;9.952;2023-09-07T10:59:53;101119.34;;;28.32;56.53
13705;BME280;6924;52.122;9.952;2023-09-07T11:02:20;101115.97;;;28.48;55.56
13705;BME280;6924;52.122;9.952;2023-09-07T11:04:48;101112.63;;;28.50;54.26
13705;BME280;6924;52.122;9.952;2023-09-07T11:07:15;101110.97;;;28.41;54.99
13705;BME280;6924;52.122;9.952;2023-09-07T11:09:43;101113.13;;;28.30;55.94
13705;BME280;6924;52.122;9.952;2023-09-07T11:12:12;101111.84;;;28.38;55.47
13705;BME280;6924;52.122;9.952;2023-09-07T11:14:39;101105.13;;;28.56;56.35
13705;BME280;6924;52.122;9.952;2023-09-07T11:17:05;101103.91;;;28.53;56.29
13705;BME280;6924;52.122;9.952;2023-09-07T11:19:32;101100.53;;;28.58;55.11
13705;BME280;6924;52.122;9.952;2023-09-07T11:22:01;101094.69;;;28.62;56.26
13705;BME280;6924;52.122;9.952;2023-09-07T11:24:29;101096.75;;;28.61;55.13
13705;BME280;6924;52.122;9.952;2023-09-07T11:26:57;101095.94;;;28.61;54.40
13705;BME280;6924;52.122;9.952;2023-09-07T11:29:24;101092.69;;;28.48;54.98
13705;BME280;6924;52.122;9.952;2023-09-07T11:31:51;101091.47;;;28.38;54.51
13705;BME280;6924;52.122;9.952;2023-09-07T11:34:17;101096.94;;;28.29;53.90
13705;BME280;6924;52.122;9.952;2023-09-07T11:36:44;101087.53;;;28.03;54.77
13705;BME280;6924;52.122;9.952;2023-09-07T11:39:11;101092.00;;;28.15;55.62
13705;BME280;6924;52.122;9.952;2023-09-07T11:41:39;101087.88;;;28.20;54.91
13705;BME280;6924;52.122;9.952;2023-09-07T11:44:06;101088.63;;;28.28;54.41
13705;BME280;6924;52.122;9.952;2023-09-07T11:46:32;101086.94;;;28.34;54.44
13705;BME280;6924;52.122;9.952;2023-09-07T11:48:59;101086.16;;;28.26;54.92
13705;BME280;6924;52.122;9.952;2023-09-07T11:51:26;101084.97;;;28.16;53.86
13705;BME280;6924;52.122;9.952;2023-09-07T11:53:52;101079.25;;;27.98;53.68
13705;BME280;6924;52.122;9.952;2023-09-07T11:56:20;101083.75;;;28.10;55.91
13705;BME280;6924;52.122;9.952;2023-09-07T11:58:46;101087.88;;;28.13;54.06
13705;BME280;6924;52.122;9.952;2023-09-07T12:01:13;101080.44;;;28.08;53.47
13705;BME280;6924;52.122;9.952;2023-09-07T12:03:41;101077.56;;;28.05;54.09
13705;BME280;6924;52.122;9.952;2023-09-07T12:06:08;101078.38;;;28.01;54.37
13705;BME280;6924;52.122;9.952;2023-09-07T12:08:34;101082.97;;;27.99;55.60
13705;BME280;6924;52.122;9.952;2023-09-07T12:11:01;101071.75;;;28.05;54.86
13705;BME280;6924;52.122;9.952;2023-09-07T12:13:29;101068.38;;;28.10;54.62
13705;BME280;6924;52.122;9.952;2023-09-07T12:15:55;101068.34;;;28.13;53.86
13705;BME280;6924;52.122;9.952;2023-09-07T12:18:22;101065.06;;;28.08;53.70
13705;BME280;6924;52.122;9.952;2023-09-07T12:20:49;101061.41;;;27.93;54.03
13705;BME280;6924;52.122;9.952;2023-09-07T12:23:15;101068.91;;;27.94;54.33
13705;BME280;6924;52.122;9.952;2023-09-07T12:25:41;101066.84;;;27.87;54.46
13705;BME280;6924;52.122;9.952;2023-09-07T12:28:08;101060.59;;;27.92;55.05
13705;BME280;6924;52.122;9.952;2023-09-07T12:30:36;101063.50;;;27.81;55.26
13705;BME280;6924;52.122;9.952;2023-09-07T12:33:03;101053.50;;;27.97;55.09
13705;BME280;6924;52.122;9.952;2023-09-07T12:35:29;101053.97;;;27.88;55.22
13705;BME280;6924;52.122;9.952;2023-09-07T12:37:56;101057.28;;;27.79;56.02
13705;BME280;6924;52.122;9.952;2023-09-07T12:40:22;101055.22;;;27.87;55.34
13705;BME280;6924;52.122;9.952;2023-09-07T12:42:49;101061.41;;;27.96;54.87
13705;BME280;6924;52.122;9.952;2023-09-07T12:45:15;101058.50;;;27.96;55.09
13705;BME280;6924;52.122;9.952;2023-09-07T12:47:43;101061.00;;;27.98;55.97
13705;BME280;6924;52.122;9.952;2023-09-07T12:50:11;101058.09;;;27.91;55.17
13705;BME280;6924;52.122;9.952;2023-09-07T12:52:37;101060.16;;;27.94;54.73
13705;BME280;6924;52.122;9.952;2023-09-07T12:55:05;101055.19;;;27.80;53.75
13705;BME280;6924;52.122;9.952;2023-09-07T12:57:31;101050.66;;;27.79;54.98